Flight Track Log - Related Links

Times and Time Zones

All times are in EST time to prevent confusion due to time zone crossing. See the CSC8652 flight status page for this flight to view local times or setup timezone preferences in your user account.

Time Position Orientation Groundspeed Altitude Reporting Facility
EST Latitude Longitude Course Direction KTS MPH feet Rate Location/Type
Fri 11:29:00 PM 26.9739 102.0213 25° Northeast  Level Estimated
Fri 11:30:00 PM 27.0461 102.0585 25° Northeast  Level Estimated
Fri 11:31:00 PM 27.1184 102.0958 25° Northeast  Level Estimated
Fri 11:32:00 PM 27.1907 102.1331 25° Northeast  Level Estimated
Fri 11:33:00 PM 27.2629 102.1704 25° Northeast  Level Estimated
Fri 11:34:00 PM 27.3351 102.2078 25° Northeast  Level Estimated
Fri 11:35:00 PM 27.4074 102.2453 25° Northeast  Level Estimated
Fri 11:36:00 PM 27.4796 102.2828 25° Northeast  Level Estimated
Fri 11:37:00 PM 27.5518 102.3204 25° Northeast  Level Estimated
Fri 11:38:00 PM 27.6240 102.3580 25° Northeast  Level Estimated
Fri 11:39:00 PM 27.6962 102.3956 25° Northeast  Level Estimated
Fri 11:40:00 PM 27.7684 102.4333 25° Northeast  Level Estimated
Fri 11:41:00 PM 27.8405 102.4711 25° Northeast  Level Estimated
Fri 11:42:00 PM 27.9127 102.5089 25° Northeast  Level Estimated
Fri 11:43:00 PM 27.9848 102.5467 25° Northeast  Level Estimated
Fri 11:44:00 PM 28.0569 102.5846 25° Northeast  Level Estimated
Fri 11:45:00 PM 28.1291 102.6226 25° Northeast  Level Estimated
Fri 11:46:00 PM 28.2012 102.6606 25° Northeast  Level Estimated
Fri 11:47:00 PM 28.2733 102.6987 25° Northeast  Level Estimated
Fri 11:48:00 PM 28.3454 102.7368 25° Northeast  Level Estimated
Fri 11:49:00 PM 28.4174 102.7749 25° Northeast  Level Estimated
Fri 11:50:00 PM 28.4895 102.8131 25° Northeast  Level Estimated
Fri 11:51:00 PM 28.5616 102.8514 25° Northeast  Level Estimated
Fri 11:52:00 PM 28.6336 102.8897 25° Northeast  Level Estimated
Fri 11:53:00 PM 28.7057 102.9281 25° Northeast  Level Estimated
Fri 11:54:00 PM 28.7777 102.9665 25° Northeast  Level Estimated
Fri 11:55:00 PM 28.8497 103.0050 25° Northeast  Level Estimated
Fri 11:56:00 PM 28.9217 103.0435 25° Northeast  Level Estimated
Fri 11:57:00 PM 28.9937 103.0821 25° Northeast  Level Estimated
Fri 11:58:00 PM 29.0657 103.1208 25° Northeast  Level Estimated
Fri 11:59:00 PM 29.1377 103.1594 25° Northeast  Level Estimated
Sat 12:00:00 AM 29.2096 103.1982 25° Northeast  Level Estimated
Sat 12:01:00 AM 29.2816 103.2370 25° Northeast  Level Estimated
Sat 12:02:00 AM 29.3535 103.2758 25° Northeast  Level Estimated
Sat 12:03:00 AM 29.4254 103.3148 25° Northeast  Level Estimated
Sat 12:04:00 AM 29.4974 103.3537 25° Northeast  Level Estimated
Sat 12:05:00 AM 29.5693 103.3927 25° Northeast  Level Estimated
Sat 12:06:00 AM 29.6412 103.4318 25° Northeast  Level Estimated
Sat 12:07:00 AM 29.7131 103.4709 25° Northeast  Level Estimated
Sat 12:08:00 AM 29.7849 103.5101 25° Northeast  Level Estimated
Sat 12:09:00 AM 29.8568 103.5494 25° Northeast  Level Estimated
Sat 12:10:00 AM 29.9286 103.5887 25° Northeast  Level Estimated
Sat 12:11:00 AM 30.0005 103.6280 25° Northeast  Level Estimated
Sat 12:12:00 AM 30.0723 103.6674 25° Northeast  Level Estimated
Sat 12:13:00 AM 30.1441 103.7069 25° Northeast  Level Estimated
Sat 12:14:00 AM 30.2159 103.7465 25° Northeast  Level Estimated
Sat 12:15:00 AM 30.2877 103.7860 25° Northeast  Level Estimated
Sat 12:16:00 AM 30.3595 103.8257 25° Northeast  Level Estimated
Sat 12:17:00 AM 30.4312 103.8654 26° Northeast  Level Estimated
Sat 12:18:00 AM 30.5030 103.9052 26° Northeast  Level Estimated

Login

Don't have an account? Register now (free) for customized features, flight alerts, and more!